Airfield :
LOGIN :

Register | Disclaimer

   EN    FR    IT 

 










Legend :    VFR   Marginal VFR   IFR   Intensive IFR   Very Intensive IFR
Visi :
Ceiling :
>= 8 km
>= 3000ft
5 to 8 km
1000 to 3000 ft
1500m to 5 km
500 to 1000 ft
800 to 1500m
200 to 500 ft
< 800m
< 200 ft
Symbols :   Thunderstorms  Fog  Heavy snow  Heavy precipitations  Wind > 20 kt
SIGMETs :     Misc.  Thunderstorms  Icing  Turbulence  Mountain Waves  Volcanic Ashes







- Airport Elevation : 465 ft
- IATA code : LEJ


EDDP - Leipzig Halle

CURRENT METAR :
  • 200850Z 19007KT 9999 VCSH FEW007 FEW016TCU BKN022 01/M01 Q1007 R26R/5903// R26L/190195 TEMPO BKN012

EXPIRED METARs :
  • 200820Z 19007KT 9999 -SHSN FEW010TCU BKN021 01/M01 Q1007 R26R/5903// R26L/190195 TEMPO 4000 -SHSN BKN012
  • 200750Z 19007KT 9999 -SHSN FEW017TCU BKN032 01/M01 Q1008 R26R/5903// R26L/190195 TEMPO 4000 -SHSN
  • 200720Z 20008KT 9999 VCSH FEW013TCU SCT042 BKN048 00/M00 Q1008 R26R/5903// R26L/190195 TEMPO 4000 -SHSN
  • 200650Z 19007KT 170V230 9999 FEW013 BKN065 BKN250 00/M01 Q1007 R26R/5903// R26L/190195 TEMPO 4000 -SHSN
  • 200620Z 22008KT 9999 FEW013TCU SCT035 BKN060 00/00 Q1007 R26R/5903// R26L/190195 NOSIG

TAF TAF EDDP
Valid from the 20 at 06:00 until the 21 at 06:00 UTC


200500Z 2006/2106 21008KT 9999 SCT030
PROB40
TEMPO 2006/2012 2500 SHSN BKN008 BKN015CB
BECMG 2014/2016 14006KT
BECMG 2022/2101 36004KT 4500 -SN BKN007
TEMPO 2022/2106 2500 SN BKN004
No reported NOTAMs for that airfield.



MET'MAP, your aeronautical weather chart ! - Copyright ORBIFLY December 2007 - Disclaimer

ORBIFLY MET'MAP TEAM :

Programming & Development : Alexandra Zaïnal
Concept & Development : Baudouin d'Aumeries
Co-Development & Prog : Marc-Olivier Méhu
Technical & hardware support : Manuel Goepfert

Contact : metmap@orbifly.com




SOURCES & CREDITS :

   NOAA